Terminal Aerodrome Forecast
Issued by NWS

Home | Current Version | Previous Version | Graphics & Text | Print | Product List | Glossary On
Versions: 1 2 3 4 5 6 7 8 9 10 11 12 13 14 15
170
FTUS43 KFGF 132328
TAFBJI
TAF
KBJI 132328Z 1400/1424 VRB03KT P6SM SKC
     FM140900 18007KT P6SM BKN110
     FM141300 18008KT P6SM OVC030
     FM141600 19008KT 3SM -SN OVC020
     FM141700 21008KT 1 1/2SM -SN OVC015
     FM141900 24009KT 1SM -SN OVC015
     FM142100 29010KT P6SM BKN010
     FM142300 31010KT P6SM BKN025=

USA.gov is the U.S. government's official web portal to all federal, state and local government web resources and services.